sensor_id;sensor_type;location;lat;lon;timestamp;P1;durP1;ratioP1;P2;durP2;ratioP2
69854;SDS011;57146;48.140;16.304;2024-02-04T00:01:43;3.92;;;1.15;;
69854;SDS011;57146;48.140;16.304;2024-02-04T00:04:15;2.97;;;0.60;;
69854;SDS011;57146;48.140;16.304;2024-02-04T00:06:42;3.20;;;0.80;;
69854;SDS011;57146;48.140;16.304;2024-02-04T00:09:10;2.78;;;0.57;;
69854;SDS011;57146;48.140;16.304;2024-02-04T00:11:38;3.70;;;0.98;;
69854;SDS011;57146;48.140;16.304;2024-02-04T00:14:31;3.13;;;0.70;;
69854;SDS011;57146;48.140;16.304;2024-02-04T00:17:24;2.70;;;0.70;;
69854;SDS011;57146;48.140;16.304;2024-02-04T00:19:52;2.87;;;0.53;;
69854;SDS011;57146;48.140;16.304;2024-02-04T00:22:19;3.10;;;0.63;;
69854;SDS011;57146;48.140;16.304;2024-02-04T00:24:46;3.40;;;0.68;;
69854;SDS011;57146;48.140;16.304;2024-02-04T00:27:14;2.85;;;0.70;;
69854;SDS011;57146;48.140;16.304;2024-02-04T00:29:41;3.28;;;0.60;;
69854;SDS011;57146;48.140;16.304;2024-02-04T00:32:09;3.97;;;0.83;;
69854;SDS011;57146;48.140;16.304;2024-02-04T00:34:36;3.65;;;0.90;;
69854;SDS011;57146;48.140;16.304;2024-02-04T00:37:04;3.13;;;0.60;;
69854;SDS011;57146;48.140;16.304;2024-02-04T00:39:33;4.15;;;0.93;;
69854;SDS011;57146;48.140;16.304;2024-02-04T00:42:00;3.42;;;0.70;;
69854;SDS011;57146;48.140;16.304;2024-02-04T00:44:29;2.70;;;0.60;;
69854;SDS011;57146;48.140;16.304;2024-02-04T00:46:56;3.20;;;0.57;;
69854;SDS011;57146;48.140;16.304;2024-02-04T00:49:23;2.50;;;0.60;;
69854;SDS011;57146;48.140;16.304;2024-02-04T00:51:50;2.88;;;0.68;;
69854;SDS011;57146;48.140;16.304;2024-02-04T00:54:18;3.08;;;0.63;;
69854;SDS011;57146;48.140;16.304;2024-02-04T00:56:45;3.17;;;0.40;;
69854;SDS011;57146;48.140;16.304;2024-02-04T00:59:12;2.70;;;0.60;;
69854;SDS011;57146;48.140;16.304;2024-02-04T01:01:39;2.33;;;0.40;;
69854;SDS011;57146;48.140;16.304;2024-02-04T01:04:06;3.03;;;0.63;;
69854;SDS011;57146;48.140;16.304;2024-02-04T01:06:34;2.72;;;0.40;;
69854;SDS011;57146;48.140;16.304;2024-02-04T01:09:17;2.30;;;0.40;;
69854;SDS011;57146;48.140;16.304;2024-02-04T01:11:44;2.85;;;0.60;;
69854;SDS011;57146;48.140;16.304;2024-02-04T01:14:11;2.42;;;0.40;;
69854;SDS011;57146;48.140;16.304;2024-02-04T01:16:40;3.13;;;0.43;;
69854;SDS011;57146;48.140;16.304;2024-02-04T01:19:07;2.42;;;0.40;;
69854;SDS011;57146;48.140;16.304;2024-02-04T01:21:34;3.07;;;0.40;;
69854;SDS011;57146;48.140;16.304;2024-02-04T01:24:01;2.78;;;0.47;;
69854;SDS011;57146;48.140;16.304;2024-02-04T01:26:28;2.45;;;0.40;;
69854;SDS011;57146;48.140;16.304;2024-02-04T01:28:56;2.88;;;0.47;;
69854;SDS011;57146;48.140;16.304;2024-02-04T01:31:22;2.75;;;0.47;;
69854;SDS011;57146;48.140;16.304;2024-02-04T01:33:50;2.63;;;0.40;;
69854;SDS011;57146;48.140;16.304;2024-02-04T01:36:17;3.10;;;0.50;;
69854;SDS011;57146;48.140;16.304;2024-02-04T01:38:44;2.28;;;0.20;;
69854;SDS011;57146;48.140;16.304;2024-02-04T01:41:11;2.85;;;0.50;;
69854;SDS011;57146;48.140;16.304;2024-02-04T01:43:38;3.15;;;0.30;;
69854;SDS011;57146;48.140;16.304;2024-02-04T01:46:05;2.70;;;0.40;;
69854;SDS011;57146;48.140;16.304;2024-02-04T01:48:34;2.47;;;0.43;;
69854;SDS011;57146;48.140;16.304;2024-02-04T01:51:02;2.17;;;0.30;;
69854;SDS011;57146;48.140;16.304;2024-02-04T01:53:31;3.63;;;0.50;;
69854;SDS011;57146;48.140;16.304;2024-02-04T01:56:00;3.30;;;0.60;;
69854;SDS011;57146;48.140;16.304;2024-02-04T01:58:28;2.63;;;0.50;;
69854;SDS011;57146;48.140;16.304;2024-02-04T02:00:55;2.58;;;0.60;;
69854;SDS011;57146;48.140;16.304;2024-02-04T02:03:23;3.00;;;0.68;;
69854;SDS011;57146;48.140;16.304;2024-02-04T02:05:51;2.83;;;0.70;;
69854;SDS011;57146;48.140;16.304;2024-02-04T02:08:19;5.60;;;0.90;;
69854;SDS011;57146;48.140;16.304;2024-02-04T02:10:46;2.83;;;0.90;;
69854;SDS011;57146;48.140;16.304;2024-02-04T02:13:20;3.88;;;1.00;;
69854;SDS011;57146;48.140;16.304;2024-02-04T02:15:56;3.08;;;0.80;;
69854;SDS011;57146;48.140;16.304;2024-02-04T02:21:13;5.15;;;1.40;;
69854;SDS011;57146;48.140;16.304;2024-02-04T02:23:56;4.17;;;1.40;;
69854;SDS011;57146;48.140;16.304;2024-02-04T02:26:37;3.25;;;1.15;;
69854;SDS011;57146;48.140;16.304;2024-02-04T02:29:05;4.07;;;1.55;;
69854;SDS011;57146;48.140;16.304;2024-02-04T02:31:32;3.92;;;1.10;;
69854;SDS011;57146;48.140;16.304;2024-02-04T02:34:13;4.43;;;1.27;;
69854;SDS011;57146;48.140;16.304;2024-02-04T02:39:40;3.33;;;1.15;;
69854;SDS011;57146;48.140;16.304;2024-02-04T02:42:12;4.53;;;1.30;;
69854;SDS011;57146;48.140;16.304;2024-02-04T02:44:41;4.35;;;1.25;;
69854;SDS011;57146;48.140;16.304;2024-02-04T02:47:10;4.35;;;1.35;;
69854;SDS011;57146;48.140;16.304;2024-02-04T02:49:38;3.73;;;1.10;;
69854;SDS011;57146;48.140;16.304;2024-02-04T02:52:05;3.60;;;1.00;;
69854;SDS011;57146;48.140;16.304;2024-02-04T02:54:32;4.05;;;1.00;;
69854;SDS011;57146;48.140;16.304;2024-02-04T02:56:59;3.60;;;1.10;;
69854;SDS011;57146;48.140;16.304;2024-02-04T02:59:26;3.05;;;0.90;;
69854;SDS011;57146;48.140;16.304;2024-02-04T03:01:53;4.47;;;0.80;;
69854;SDS011;57146;48.140;16.304;2024-02-04T03:04:20;3.13;;;0.90;;
69854;SDS011;57146;48.140;16.304;2024-02-04T03:06:47;3.45;;;0.95;;
69854;SDS011;57146;48.140;16.304;2024-02-04T03:09:14;2.92;;;0.80;;
69854;SDS011;57146;48.140;16.304;2024-02-04T03:11:41;2.90;;;0.70;;
69854;SDS011;57146;48.140;16.304;2024-02-04T03:14:08;3.80;;;0.60;;
69854;SDS011;57146;48.140;16.304;2024-02-04T03:16:35;3.00;;;0.52;;
69854;SDS011;57146;48.140;16.304;2024-02-04T03:19:04;2.90;;;0.70;;
69854;SDS011;57146;48.140;16.304;2024-02-04T03:21:32;2.70;;;0.60;;
69854;SDS011;57146;48.140;16.304;2024-02-04T03:23:59;2.58;;;0.68;;
69854;SDS011;57146;48.140;16.304;2024-02-04T03:26:26;2.67;;;0.60;;
69854;SDS011;57146;48.140;16.304;2024-02-04T03:28:53;2.63;;;0.50;;
69854;SDS011;57146;48.140;16.304;2024-02-04T03:31:20;2.40;;;0.47;;
69854;SDS011;57146;48.140;16.304;2024-02-04T03:33:49;2.85;;;0.75;;
69854;SDS011;57146;48.140;16.304;2024-02-04T03:36:21;3.05;;;0.60;;
69854;SDS011;57146;48.140;16.304;2024-02-04T03:38:52;2.80;;;0.50;;
69854;SDS011;57146;48.140;16.304;2024-02-04T03:41:19;2.97;;;0.30;;
69854;SDS011;57146;48.140;16.304;2024-02-04T03:43:46;2.50;;;0.40;;
69854;SDS011;57146;48.140;16.304;2024-02-04T03:46:16;2.50;;;0.50;;
69854;SDS011;57146;48.140;16.304;2024-02-04T03:48:43;2.17;;;0.38;;
69854;SDS011;57146;48.140;16.304;2024-02-04T03:51:16;2.70;;;0.40;;
69854;SDS011;57146;48.140;16.304;2024-02-04T03:53:49;3.08;;;0.55;;
69854;SDS011;57146;48.140;16.304;2024-02-04T03:56:17;3.20;;;0.50;;
69854;SDS011;57146;48.140;16.304;2024-02-04T03:58:44;2.72;;;0.63;;
69854;SDS011;57146;48.140;16.304;2024-02-04T04:01:11;2.83;;;0.50;;
69854;SDS011;57146;48.140;16.304;2024-02-04T04:03:41;3.20;;;0.77;;
69854;SDS011;57146;48.140;16.304;2024-02-04T04:06:09;3.35;;;0.65;;
69854;SDS011;57146;48.140;16.304;2024-02-04T04:08:37;2.50;;;0.50;;
69854;SDS011;57146;48.140;16.304;2024-02-04T04:11:07;3.65;;;0.60;;
69854;SDS011;57146;48.140;16.304;2024-02-04T04:13:35;2.70;;;0.50;;
69854;SDS011;57146;48.140;16.304;2024-02-04T04:16:04;3.00;;;0.70;;
69854;SDS011;57146;48.140;16.304;2024-02-04T04:18:32;3.33;;;0.70;;
69854;SDS011;57146;48.140;16.304;2024-02-04T04:21:00;3.10;;;0.77;;
69854;SDS011;57146;48.140;16.304;2024-02-04T04:23:29;3.00;;;0.57;;
69854;SDS011;57146;48.140;16.304;2024-02-04T04:25:56;2.90;;;0.70;;
69854;SDS011;57146;48.140;16.304;2024-02-04T04:28:24;3.07;;;0.47;;
69854;SDS011;57146;48.140;16.304;2024-02-04T04:30:50;3.42;;;0.80;;
69854;SDS011;57146;48.140;16.304;2024-02-04T04:33:18;3.58;;;0.68;;
69854;SDS011;57146;48.140;16.304;2024-02-04T04:35:45;3.65;;;0.90;;
69854;SDS011;57146;48.140;16.304;2024-02-04T04:38:12;3.53;;;0.60;;
69854;SDS011;57146;48.140;16.304;2024-02-04T04:40:41;3.37;;;0.80;;
69854;SDS011;57146;48.140;16.304;2024-02-04T04:43:08;2.90;;;0.75;;
69854;SDS011;57146;48.140;16.304;2024-02-04T04:45:35;3.30;;;0.80;;
69854;SDS011;57146;48.140;16.304;2024-02-04T04:48:02;2.83;;;0.65;;
69854;SDS011;57146;48.140;16.304;2024-02-04T04:50:31;4.40;;;0.70;;
69854;SDS011;57146;48.140;16.304;2024-02-04T04:52:58;3.30;;;0.53;;
69854;SDS011;57146;48.140;16.304;2024-02-04T04:55:25;3.10;;;0.60;;
69854;SDS011;57146;48.140;16.304;2024-02-04T04:57:52;3.22;;;0.40;;
69854;SDS011;57146;48.140;16.304;2024-02-04T05:00:19;2.00;;;0.20;;
69854;SDS011;57146;48.140;16.304;2024-02-04T05:02:46;2.92;;;0.50;;
69854;SDS011;57146;48.140;16.304;2024-02-04T05:05:13;2.40;;;0.37;;
69854;SDS011;57146;48.140;16.304;2024-02-04T05:07:40;3.00;;;0.40;;
69854;SDS011;57146;48.140;16.304;2024-02-04T05:10:08;2.38;;;0.38;;
69854;SDS011;57146;48.140;16.304;2024-02-04T05:12:35;2.78;;;0.30;;
69854;SDS011;57146;48.140;16.304;2024-02-04T05:15:04;2.90;;;0.30;;
69854;SDS011;57146;48.140;16.304;2024-02-04T05:17:32;2.67;;;0.30;;
69854;SDS011;57146;48.140;16.304;2024-02-04T05:19:59;2.33;;;0.38;;
69854;SDS011;57146;48.140;16.304;2024-02-04T05:22:27;2.38;;;0.30;;
69854;SDS011;57146;48.140;16.304;2024-02-04T05:24:54;2.58;;;0.30;;
69854;SDS011;57146;48.140;16.304;2024-02-04T05:27:21;2.20;;;0.30;;
69854;SDS011;57146;48.140;16.304;2024-02-04T05:29:52;2.53;;;0.53;;
69854;SDS011;57146;48.140;16.304;2024-02-04T05:32:19;2.50;;;0.30;;
69854;SDS011;57146;48.140;16.304;2024-02-04T05:34:46;2.42;;;0.30;;
69854;SDS011;57146;48.140;16.304;2024-02-04T05:37:13;2.28;;;0.40;;
69854;SDS011;57146;48.140;16.304;2024-02-04T05:39:42;3.35;;;0.50;;
69854;SDS011;57146;48.140;16.304;2024-02-04T05:42:09;4.07;;;0.60;;
69854;SDS011;57146;48.140;16.304;2024-02-04T05:44:36;2.92;;;0.50;;
69854;SDS011;57146;48.140;16.304;2024-02-04T05:47:03;3.60;;;0.73;;
69854;SDS011;57146;48.140;16.304;2024-02-04T05:49:37;3.58;;;0.73;;
69854;SDS011;57146;48.140;16.304;2024-02-04T05:52:05;3.15;;;0.70;;
69854;SDS011;57146;48.140;16.304;2024-02-04T05:54:36;3.20;;;0.60;;
69854;SDS011;57146;48.140;16.304;2024-02-04T05:57:04;5.00;;;0.73;;
69854;SDS011;57146;48.140;16.304;2024-02-04T05:59:32;3.13;;;0.60;;
69854;SDS011;57146;48.140;16.304;2024-02-04T06:01:59;2.78;;;0.60;;
69854;SDS011;57146;48.140;16.304;2024-02-04T06:04:26;3.15;;;0.50;;
69854;SDS011;57146;48.140;16.304;2024-02-04T06:06:55;3.80;;;0.80;;
69854;SDS011;57146;48.140;16.304;2024-02-04T06:09:22;2.88;;;0.73;;
69854;SDS011;57146;48.140;16.304;2024-02-04T06:11:49;3.45;;;0.70;;
69854;SDS011;57146;48.140;16.304;2024-02-04T06:14:16;2.80;;;0.47;;
69854;SDS011;57146;48.140;16.304;2024-02-04T06:16:43;4.30;;;0.80;;
69854;SDS011;57146;48.140;16.304;2024-02-04T06:19:11;3.27;;;0.80;;
69854;SDS011;57146;48.140;16.304;2024-02-04T06:21:39;3.72;;;1.00;;
69854;SDS011;57146;48.140;16.304;2024-02-04T06:24:07;3.40;;;0.70;;
69854;SDS011;57146;48.140;16.304;2024-02-04T06:26:36;3.58;;;0.85;;
69854;SDS011;57146;48.140;16.304;2024-02-04T06:29:06;3.72;;;0.57;;
69854;SDS011;57146;48.140;16.304;2024-02-04T06:31:33;3.03;;;0.60;;
69854;SDS011;57146;48.140;16.304;2024-02-04T06:34:00;2.83;;;0.60;;
69854;SDS011;57146;48.140;16.304;2024-02-04T06:36:28;2.88;;;0.68;;
69854;SDS011;57146;48.140;16.304;2024-02-04T06:38:55;2.95;;;0.60;;
69854;SDS011;57146;48.140;16.304;2024-02-04T06:41:23;2.70;;;0.50;;
69854;SDS011;57146;48.140;16.304;2024-02-04T06:43:54;2.60;;;0.50;;
69854;SDS011;57146;48.140;16.304;2024-02-04T06:46:27;2.58;;;0.52;;
69854;SDS011;57146;48.140;16.304;2024-02-04T06:48:54;2.92;;;0.50;;
69854;SDS011;57146;48.140;16.304;2024-02-04T06:51:22;2.65;;;0.45;;
69854;SDS011;57146;48.140;16.304;2024-02-04T06:53:49;2.65;;;0.50;;
69854;SDS011;57146;48.140;16.304;2024-02-04T06:56:17;2.70;;;0.50;;
69854;SDS011;57146;48.140;16.304;2024-02-04T06:58:44;3.15;;;0.40;;
69854;SDS011;57146;48.140;16.304;2024-02-04T07:01:11;2.00;;;0.30;;
69854;SDS011;57146;48.140;16.304;2024-02-04T07:03:39;2.78;;;0.50;;
69854;SDS011;57146;48.140;16.304;2024-02-04T07:06:06;2.35;;;0.40;;
69854;SDS011;57146;48.140;16.304;2024-02-04T07:08:33;2.47;;;0.40;;
69854;SDS011;57146;48.140;16.304;2024-02-04T07:11:01;2.00;;;0.30;;
69854;SDS011;57146;48.140;16.304;2024-02-04T07:13:28;3.08;;;0.40;;
69854;SDS011;57146;48.140;16.304;2024-02-04T07:15:55;2.33;;;0.22;;
69854;SDS011;57146;48.140;16.304;2024-02-04T07:18:22;2.47;;;0.25;;
69854;SDS011;57146;48.140;16.304;2024-02-04T07:20:49;2.57;;;0.40;;
69854;SDS011;57146;48.140;16.304;2024-02-04T07:23:16;2.10;;;0.22;;
69854;SDS011;57146;48.140;16.304;2024-02-04T07:25:43;2.70;;;0.40;;
69854;SDS011;57146;48.140;16.304;2024-02-04T07:28:10;2.53;;;0.30;;
69854;SDS011;57146;48.140;16.304;2024-02-04T07:30:38;2.63;;;0.20;;
69854;SDS011;57146;48.140;16.304;2024-02-04T07:33:05;3.07;;;0.23;;
69854;SDS011;57146;48.140;16.304;2024-02-04T07:35:32;2.60;;;0.40;;
69854;SDS011;57146;48.140;16.304;2024-02-04T07:37:59;2.53;;;0.28;;
69854;SDS011;57146;48.140;16.304;2024-02-04T07:40:26;3.03;;;0.50;;
69854;SDS011;57146;48.140;16.304;2024-02-04T07:42:53;2.30;;;0.20;;
69854;SDS011;57146;48.140;16.304;2024-02-04T07:45:21;2.30;;;0.20;;
69854;SDS011;57146;48.140;16.304;2024-02-04T07:47:47;2.10;;;0.25;;
69854;SDS011;57146;48.140;16.304;2024-02-04T07:50:18;3.22;;;0.20;;
69854;SDS011;57146;48.140;16.304;2024-02-04T07:52:45;2.40;;;0.20;;
69854;SDS011;57146;48.140;16.304;2024-02-04T07:55:12;3.33;;;0.20;;
69854;SDS011;57146;48.140;16.304;2024-02-04T07:57:39;2.70;;;0.10;;
69854;SDS011;57146;48.140;16.304;2024-02-04T08:00:06;2.15;;;0.20;;
69854;SDS011;57146;48.140;16.304;2024-02-04T08:02:40;2.28;;;0.10;;
69854;SDS011;57146;48.140;16.304;2024-02-04T08:05:08;1.73;;;0.10;;
69854;SDS011;57146;48.140;16.304;2024-02-04T08:07:35;1.88;;;0.10;;
69854;SDS011;57146;48.140;16.304;2024-02-04T08:10:03;1.90;;;0.10;;
69854;SDS011;57146;48.140;16.304;2024-02-04T08:12:31;1.60;;;0.10;;
69854;SDS011;57146;48.140;16.304;2024-02-04T08:14:58;3.83;;;0.00;;
69854;SDS011;57146;48.140;16.304;2024-02-04T08:17:26;2.25;;;0.10;;
69854;SDS011;57146;48.140;16.304;2024-02-04T08:19:53;1.90;;;0.08;;
69854;SDS011;57146;48.140;16.304;2024-02-04T08:22:20;1.13;;;0.00;;
69854;SDS011;57146;48.140;16.304;2024-02-04T08:24:48;1.25;;;0.00;;
69854;SDS011;57146;48.140;16.304;2024-02-04T08:27:16;1.98;;;0.00;;
69854;SDS011;57146;48.140;16.304;2024-02-04T08:29:47;1.30;;;0.00;;
69854;SDS011;57146;48.140;16.304;2024-02-04T08:32:14;1.67;;;0.00;;
69854;SDS011;57146;48.140;16.304;2024-02-04T08:34:41;1.60;;;0.00;;
69854;SDS011;57146;48.140;16.304;2024-02-04T08:37:09;1.13;;;0.00;;
69854;SDS011;57146;48.140;16.304;2024-02-04T08:39:36;0.98;;;0.00;;
69854;SDS011;57146;48.140;16.304;2024-02-04T08:42:03;1.17;;;0.00;;
69854;SDS011;57146;48.140;16.304;2024-02-04T08:44:30;1.00;;;0.00;;
69854;SDS011;57146;48.140;16.304;2024-02-04T08:47:09;0.97;;;0.00;;
69854;SDS011;57146;48.140;16.304;2024-02-04T08:50:00;1.00;;;0.00;;
69854;SDS011;57146;48.140;16.304;2024-02-04T08:52:27;0.85;;;0.00;;
69854;SDS011;57146;48.140;16.304;2024-02-04T08:54:54;1.55;;;0.00;;
69854;SDS011;57146;48.140;16.304;2024-02-04T08:57:21;0.98;;;0.00;;
69854;SDS011;57146;48.140;16.304;2024-02-04T08:59:49;0.83;;;0.00;;
69854;SDS011;57146;48.140;16.304;2024-02-04T09:02:16;0.93;;;0.00;;
69854;SDS011;57146;48.140;16.304;2024-02-04T09:04:45;0.70;;;0.00;;
69854;SDS011;57146;48.140;16.304;2024-02-04T09:07:12;0.85;;;0.00;;
69854;SDS011;57146;48.140;16.304;2024-02-04T09:09:40;1.25;;;0.00;;
69854;SDS011;57146;48.140;16.304;2024-02-04T09:12:10;0.80;;;0.00;;
69854;SDS011;57146;48.140;16.304;2024-02-04T09:14:37;0.70;;;0.00;;
69854;SDS011;57146;48.140;16.304;2024-02-04T09:17:06;0.55;;;0.00;;
69854;SDS011;57146;48.140;16.304;2024-02-04T09:19:33;0.75;;;0.00;;
69854;SDS011;57146;48.140;16.304;2024-02-04T09:22:05;0.70;;;0.00;;
69854;SDS011;57146;48.140;16.304;2024-02-04T09:24:32;1.20;;;0.00;;
69854;SDS011;57146;48.140;16.304;2024-02-04T09:26:59;0.60;;;0.00;;
69854;SDS011;57146;48.140;16.304;2024-02-04T09:29:26;0.60;;;0.00;;
69854;SDS011;57146;48.140;16.304;2024-02-04T09:31:54;0.50;;;0.00;;
69854;SDS011;57146;48.140;16.304;2024-02-04T09:34:21;0.73;;;0.00;;
69854;SDS011;57146;48.140;16.304;2024-02-04T09:36:49;0.57;;;0.00;;
69854;SDS011;57146;48.140;16.304;2024-02-04T09:39:16;0.30;;;0.00;;
69854;SDS011;57146;48.140;16.304;2024-02-04T09:41:43;0.65;;;0.00;;
69854;SDS011;57146;48.140;16.304;2024-02-04T09:44:10;1.30;;;0.00;;
69854;SDS011;57146;48.140;16.304;2024-02-04T09:46:42;0.40;;;0.00;;
69854;SDS011;57146;48.140;16.304;2024-02-04T09:49:11;0.50;;;0.00;;
69854;SDS011;57146;48.140;16.304;2024-02-04T09:51:41;0.43;;;0.00;;
69854;SDS011;57146;48.140;16.304;2024-02-04T09:54:10;0.80;;;0.00;;
69854;SDS011;57146;48.140;16.304;2024-02-04T09:57:03;0.50;;;0.00;;
69854;SDS011;57146;48.140;16.304;2024-02-04T09:59:32;0.90;;;0.00;;
69854;SDS011;57146;48.140;16.304;2024-02-04T10:01:59;0.90;;;0.00;;
69854;SDS011;57146;48.140;16.304;2024-02-04T10:04:26;1.05;;;0.00;;
69854;SDS011;57146;48.140;16.304;2024-02-04T10:06:55;2.08;;;0.00;;
69854;SDS011;57146;48.140;16.304;2024-02-04T10:09:22;0.70;;;0.00;;
69854;SDS011;57146;48.140;16.304;2024-02-04T10:11:49;0.70;;;0.00;;
69854;SDS011;57146;48.140;16.304;2024-02-04T10:14:17;0.67;;;0.00;;
69854;SDS011;57146;48.140;16.304;2024-02-04T10:16:44;0.50;;;0.00;;
69854;SDS011;57146;48.140;16.304;2024-02-04T10:19:11;1.40;;;0.00;;
69854;SDS011;57146;48.140;16.304;2024-02-04T10:21:40;0.55;;;0.00;;
69854;SDS011;57146;48.140;16.304;2024-02-04T10:24:07;0.47;;;0.00;;
69854;SDS011;57146;48.140;16.304;2024-02-04T10:26:37;0.40;;;0.00;;
69854;SDS011;57146;48.140;16.304;2024-02-04T10:29:04;0.50;;;0.00;;
69854;SDS011;57146;48.140;16.304;2024-02-04T10:31:31;1.85;;;0.00;;
69854;SDS011;57146;48.140;16.304;2024-02-04T10:34:00;0.82;;;0.00;;
69854;SDS011;57146;48.140;16.304;2024-02-04T10:36:29;0.28;;;0.00;;
69854;SDS011;57146;48.140;16.304;2024-02-04T10:38:57;0.20;;;0.00;;
69854;SDS011;57146;48.140;16.304;2024-02-04T10:41:24;0.60;;;0.00;;
69854;SDS011;57146;48.140;16.304;2024-02-04T10:44:02;0.40;;;0.00;;
69854;SDS011;57146;48.140;16.304;2024-02-04T10:46:29;0.20;;;0.00;;
69854;SDS011;57146;48.140;16.304;2024-02-04T10:49:00;0.32;;;0.00;;
69854;SDS011;57146;48.140;16.304;2024-02-04T10:51:32;0.20;;;0.00;;
69854;SDS011;57146;48.140;16.304;2024-02-04T10:54:03;0.20;;;0.00;;
69854;SDS011;57146;48.140;16.304;2024-02-04T10:56:38;0.52;;;0.00;;
69854;SDS011;57146;48.140;16.304;2024-02-04T10:59:13;0.88;;;0.00;;
69854;SDS011;57146;48.140;16.304;2024-02-04T11:01:43;1.00;;;0.00;;
69854;SDS011;57146;48.140;16.304;2024-02-04T11:04:10;1.07;;;0.00;;
69854;SDS011;57146;48.140;16.304;2024-02-04T11:06:38;0.50;;;0.00;;
69854;SDS011;57146;48.140;16.304;2024-02-04T11:09:08;0.70;;;0.00;;
69854;SDS011;57146;48.140;16.304;2024-02-04T11:11:36;0.20;;;0.00;;
69854;SDS011;57146;48.140;16.304;2024-02-04T11:14:07;0.68;;;0.00;;
69854;SDS011;57146;48.140;16.304;2024-02-04T11:28:16;0.38;;;0.00;;
69854;SDS011;57146;48.140;16.304;2024-02-04T11:31:13;0.30;;;0.00;;
69854;SDS011;57146;48.140;16.304;2024-02-04T11:33:42;0.50;;;0.00;;
69854;SDS011;57146;48.140;16.304;2024-02-04T11:36:13;0.08;;;0.00;;
69854;SDS011;57146;48.140;16.304;2024-02-04T11:38:41;0.50;;;0.00;;
69854;SDS011;57146;48.140;16.304;2024-02-04T11:41:08;1.08;;;0.00;;
69854;SDS011;57146;48.140;16.304;2024-02-04T11:43:38;0.87;;;0.00;;
69854;SDS011;57146;48.140;16.304;2024-02-04T11:46:06;0.52;;;0.00;;
69854;SDS011;57146;48.140;16.304;2024-02-04T11:48:34;0.65;;;0.00;;
69854;SDS011;57146;48.140;16.304;2024-02-04T11:51:03;0.90;;;0.00;;
69854;SDS011;57146;48.140;16.304;2024-02-04T11:53:31;0.98;;;0.00;;
69854;SDS011;57146;48.140;16.304;2024-02-04T11:56:00;2.37;;;0.00;;
69854;SDS011;57146;48.140;16.304;2024-02-04T11:58:27;1.08;;;0.00;;
69854;SDS011;57146;48.140;16.304;2024-02-04T12:00:56;0.60;;;0.00;;
69854;SDS011;57146;48.140;16.304;2024-02-04T12:03:28;0.57;;;0.00;;
69854;SDS011;57146;48.140;16.304;2024-02-04T12:05:57;0.82;;;0.00;;
69854;SDS011;57146;48.140;16.304;2024-02-04T12:08:25;0.70;;;0.00;;
69854;SDS011;57146;48.140;16.304;2024-02-04T12:10:55;0.60;;;0.00;;
69854;SDS011;57146;48.140;16.304;2024-02-04T12:13:23;1.00;;;0.00;;
69854;SDS011;57146;48.140;16.304;2024-02-04T12:15:51;0.98;;;0.00;;
69854;SDS011;57146;48.140;16.304;2024-02-04T12:18:18;0.75;;;0.00;;
69854;SDS011;57146;48.140;16.304;2024-02-04T12:20:45;1.27;;;0.00;;
69854;SDS011;57146;48.140;16.304;2024-02-04T12:23:13;2.92;;;0.00;;
69854;SDS011;57146;48.140;16.304;2024-02-04T12:25:41;0.90;;;0.00;;
69854;SDS011;57146;48.140;16.304;2024-02-04T12:28:10;0.82;;;0.00;;
69854;SDS011;57146;48.140;16.304;2024-02-04T12:30:38;1.55;;;0.00;;
69854;SDS011;57146;48.140;16.304;2024-02-04T12:33:05;0.83;;;0.00;;
69854;SDS011;57146;48.140;16.304;2024-02-04T12:35:34;1.25;;;0.00;;
69854;SDS011;57146;48.140;16.304;2024-02-04T12:38:01;1.85;;;0.00;;
69854;SDS011;57146;48.140;16.304;2024-02-04T12:40:29;1.15;;;0.00;;
69854;SDS011;57146;48.140;16.304;2024-02-04T12:43:01;2.95;;;0.00;;
69854;SDS011;57146;48.140;16.304;2024-02-04T12:45:32;1.37;;;0.00;;
69854;SDS011;57146;48.140;16.304;2024-02-04T12:48:01;1.20;;;0.00;;
69854;SDS011;57146;48.140;16.304;2024-02-04T12:50:28;1.27;;;0.00;;
69854;SDS011;57146;48.140;16.304;2024-02-04T12:53:05;1.40;;;0.00;;
69854;SDS011;57146;48.140;16.304;2024-02-04T12:55:35;2.40;;;0.00;;
69854;SDS011;57146;48.140;16.304;2024-02-04T12:58:03;1.13;;;0.00;;
69854;SDS011;57146;48.140;16.304;2024-02-04T13:00:33;1.30;;;0.00;;
69854;SDS011;57146;48.140;16.304;2024-02-04T13:03:05;1.00;;;0.00;;
69854;SDS011;57146;48.140;16.304;2024-02-04T13:05:33;1.52;;;0.00;;
69854;SDS011;57146;48.140;16.304;2024-02-04T13:08:00;2.25;;;0.00;;
69854;SDS011;57146;48.140;16.304;2024-02-04T13:10:30;1.43;;;0.00;;
69854;SDS011;57146;48.140;16.304;2024-02-04T13:13:01;1.33;;;0.03;;
69854;SDS011;57146;48.140;16.304;2024-02-04T13:15:42;2.22;;;0.08;;
69854;SDS011;57146;48.140;16.304;2024-02-04T13:18:10;3.45;;;0.10;;
69854;SDS011;57146;48.140;16.304;2024-02-04T13:20:38;1.80;;;0.00;;
69854;SDS011;57146;48.140;16.304;2024-02-04T13:23:06;1.73;;;0.00;;
69854;SDS011;57146;48.140;16.304;2024-02-04T13:25:33;2.45;;;0.05;;
69854;SDS011;57146;48.140;16.304;2024-02-04T13:28:01;2.53;;;0.08;;
69854;SDS011;57146;48.140;16.304;2024-02-04T13:30:28;2.20;;;0.10;;
69854;SDS011;57146;48.140;16.304;2024-02-04T13:32:56;1.63;;;0.10;;
69854;SDS011;57146;48.140;16.304;2024-02-04T13:35:23;2.10;;;0.10;;
69854;SDS011;57146;48.140;16.304;2024-02-04T13:37:52;1.73;;;0.10;;
69854;SDS011;57146;48.140;16.304;2024-02-04T13:40:19;2.03;;;0.10;;
69854;SDS011;57146;48.140;16.304;2024-02-04T13:42:47;2.47;;;0.00;;
69854;SDS011;57146;48.140;16.304;2024-02-04T13:45:14;2.05;;;0.08;;
69854;SDS011;57146;48.140;16.304;2024-02-04T13:47:42;2.47;;;0.10;;
69854;SDS011;57146;48.140;16.304;2024-02-04T13:50:09;3.97;;;0.10;;
69854;SDS011;57146;48.140;16.304;2024-02-04T13:52:38;2.03;;;0.10;;
69854;SDS011;57146;48.140;16.304;2024-02-04T13:55:06;1.67;;;0.00;;
69854;SDS011;57146;48.140;16.304;2024-02-04T13:57:35;2.05;;;0.10;;
69854;SDS011;57146;48.140;16.304;2024-02-04T14:00:02;1.53;;;0.00;;
69854;SDS011;57146;48.140;16.304;2024-02-04T14:02:55;2.03;;;0.10;;
69854;SDS011;57146;48.140;16.304;2024-02-04T14:05:25;2.30;;;0.10;;
69854;SDS011;57146;48.140;16.304;2024-02-04T14:07:53;1.55;;;0.00;;
69854;SDS011;57146;48.140;16.304;2024-02-04T14:10:23;1.85;;;0.00;;
69854;SDS011;57146;48.140;16.304;2024-02-04T14:12:50;1.30;;;0.03;;
69854;SDS011;57146;48.140;16.304;2024-02-04T14:15:20;1.65;;;0.00;;
69854;SDS011;57146;48.140;16.304;2024-02-04T14:17:47;1.55;;;0.00;;
69854;SDS011;57146;48.140;16.304;2024-02-04T14:20:14;1.75;;;0.10;;
69854;SDS011;57146;48.140;16.304;2024-02-04T14:22:41;2.78;;;0.00;;
69854;SDS011;57146;48.140;16.304;2024-02-04T14:25:09;2.00;;;0.10;;
69854;SDS011;57146;48.140;16.304;2024-02-04T14:27:36;2.70;;;0.00;;
69854;SDS011;57146;48.140;16.304;2024-02-04T14:30:03;2.15;;;0.10;;
69854;SDS011;57146;48.140;16.304;2024-02-04T14:32:31;2.17;;;0.05;;
69854;SDS011;57146;48.140;16.304;2024-02-04T14:34:58;2.13;;;0.10;;
69854;SDS011;57146;48.140;16.304;2024-02-04T14:37:26;1.83;;;0.00;;
69854;SDS011;57146;48.140;16.304;2024-02-04T14:39:53;2.55;;;0.20;;
69854;SDS011;57146;48.140;16.304;2024-02-04T14:42:20;1.50;;;0.00;;
69854;SDS011;57146;48.140;16.304;2024-02-04T14:44:48;2.22;;;0.35;;
69854;SDS011;57146;48.140;16.304;2024-02-04T14:47:15;1.98;;;0.10;;
69854;SDS011;57146;48.140;16.304;2024-02-04T14:49:42;1.53;;;0.00;;
69854;SDS011;57146;48.140;16.304;2024-02-04T14:52:09;1.67;;;0.00;;
69854;SDS011;57146;48.140;16.304;2024-02-04T14:54:38;3.08;;;0.00;;
69854;SDS011;57146;48.140;16.304;2024-02-04T14:57:05;1.67;;;0.00;;
69854;SDS011;57146;48.140;16.304;2024-02-04T14:59:33;1.00;;;0.00;;